createdAt,value
2022-08-13T00:06:00.576Z,17.6
2022-08-13T00:12:47.500Z,17.6
2022-08-13T00:27:42.213Z,17.5
2022-08-13T00:34:21.873Z,17.5
2022-08-13T00:42:16.175Z,17.4
2022-08-13T00:48:08.249Z,17.4
2022-08-13T00:54:55.553Z,17.4
2022-08-13T01:01:07.749Z,17.4
2022-08-13T01:08:54.236Z,17.4
2022-08-13T01:16:09.261Z,17.3
2022-08-13T01:23:02.310Z,17.3
2022-08-13T01:29:36.950Z,17.3
2022-08-13T01:36:13.890Z,17.3
2022-08-13T01:43:21.899Z,17.3
2022-08-13T01:50:04.690Z,17.3
2022-08-13T01:57:16.334Z,17.3
2022-08-13T02:06:40.083Z,17.3
2022-08-13T02:14:06.416Z,17.2
2022-08-13T02:21:18.181Z,17.2
2022-08-13T02:27:57.503Z,17.1
2022-08-13T02:34:30.424Z,17.1
2022-08-13T02:41:32.395Z,17.1
2022-08-13T02:48:01.734Z,17.1
2022-08-13T03:14:25.886Z,16.9
2022-08-13T03:21:14.767Z,16.9
2022-08-13T03:26:56.806Z,16.9
2022-08-13T03:34:17.129Z,16.9
2022-08-13T03:40:05.485Z,16.9
2022-08-13T03:47:26.702Z,16.8
2022-08-13T03:53:58.909Z,16.8
2022-08-13T04:00:50.735Z,16.8
2022-08-13T04:07:07.421Z,16.8
2022-08-13T04:14:36.497Z,16.8
2022-08-13T04:20:50.315Z,16.8
2022-08-13T04:27:09.876Z,16.8
2022-08-13T04:34:49.406Z,16.8
2022-08-13T04:41:55.827Z,16.8
2022-08-13T04:48:17.611Z,16.8
2022-08-13T04:54:28.638Z,16.8
2022-08-13T05:02:08.762Z,16.9
2022-08-13T05:15:59.575Z,17.1
2022-08-13T05:26:34.964Z,17.3
2022-08-13T05:34:22.515Z,17.8
2022-08-13T05:43:39.194Z,18.3
2022-08-13T05:50:11.294Z,18.6
2022-08-13T05:59:08.959Z,19.3
2022-08-13T06:07:13.190Z,20
2022-08-13T06:15:10.057Z,20.6
2022-08-13T06:23:11.879Z,21
2022-08-13T06:30:30.496Z,21.3
2022-08-13T06:39:14.642Z,21.6
2022-08-13T06:46:46.532Z,21.8
2022-08-13T06:54:58.328Z,22.1
2022-08-13T07:04:46.058Z,22.8
2022-08-13T07:10:37.803Z,23.3
2022-08-13T07:17:21.151Z,24
2022-08-13T07:27:02.634Z,25.3
2022-08-13T07:34:26.463Z,26.4
2022-08-13T07:40:48.122Z,27.4
2022-08-13T07:50:22.895Z,31.4
2022-08-13T07:58:15.464Z,31.4
2022-08-13T08:06:28.852Z,30.9
2022-08-13T08:13:25.321Z,30.8
2022-08-13T08:24:17.929Z,31.4
2022-08-13T08:32:55.653Z,35.5
2022-08-13T08:41:12.165Z,36.1
2022-08-13T08:49:16.601Z,36.5
2022-08-13T08:56:58.438Z,36.6
2022-08-13T09:04:14.045Z,36.6
2022-08-13T09:11:41.799Z,36.6
2022-08-13T09:17:35.673Z,36.6
2022-08-13T09:24:35.846Z,36.3
2022-08-13T09:32:49.485Z,35.9
2022-08-13T09:39:31.467Z,35.4
2022-08-13T09:46:36.378Z,33.5
2022-08-13T09:56:08.745Z,33.4
2022-08-13T10:03:30.009Z,33.5
2022-08-13T10:10:47.580Z,33.6
2022-08-13T10:18:27.584Z,33.4
2022-08-13T10:24:31.625Z,33.4
2022-08-13T10:33:16.189Z,33.2
2022-08-13T10:40:12.702Z,33
2022-08-13T10:47:10.395Z,32.9
2022-08-13T10:53:58.336Z,32.7
2022-08-13T11:00:32.745Z,32.6
2022-08-13T11:07:11.123Z,32.4
2022-08-13T11:15:16.370Z,32.3
2022-08-13T11:23:39.951Z,32.1
2022-08-13T11:31:17.305Z,31.9
2022-08-13T11:38:36.021Z,31.7
2022-08-13T11:46:38.809Z,31.4
2022-08-13T11:53:55.231Z,31.2
2022-08-13T12:02:25.073Z,30.9
2022-08-13T12:10:54.566Z,30.8
2022-08-13T12:19:12.029Z,30.7
2022-08-13T12:26:41.257Z,30.6
2022-08-13T12:33:14.056Z,30.4
2022-08-13T12:41:14.086Z,30.3
2022-08-13T12:49:19.992Z,30.2
2022-08-13T12:58:23.980Z,30.1
2022-08-13T13:05:05.770Z,29.9
2022-08-13T13:14:28.063Z,29.6
2022-08-13T13:23:39.451Z,29.4
2022-08-13T13:30:38.492Z,29.1
2022-08-13T13:39:43.588Z,28.9
2022-08-13T13:47:06.374Z,28.7
2022-08-13T13:53:52.071Z,28.1
2022-08-13T14:01:20.033Z,26.8
2022-08-13T14:09:02.446Z,25.6
2022-08-13T14:15:48.209Z,24.7
2022-08-13T14:22:43.889Z,23.8
2022-08-13T14:28:36.927Z,23.1
2022-08-13T14:35:16.037Z,22.5
2022-08-13T14:43:37.804Z,22.1
2022-08-13T14:50:50.709Z,21.8
2022-08-13T14:57:41.078Z,21.9
2022-08-13T15:04:28.642Z,22.2
2022-08-13T15:11:43.923Z,22.5
2022-08-13T15:18:40.915Z,22.8
2022-08-13T15:25:42.781Z,23.2
2022-08-13T15:31:52.734Z,23.6
2022-08-13T15:39:00.870Z,23.9
2022-08-13T15:45:11.114Z,23.9
2022-08-13T15:51:25.967Z,23.8
2022-08-13T15:57:59.354Z,23.6
2022-08-13T16:05:10.187Z,23.2
2022-08-13T16:12:52.148Z,22.8
2022-08-13T16:20:18.087Z,22.5
2022-08-13T16:27:24.072Z,22.1
2022-08-13T16:34:31.604Z,21.8
2022-08-13T16:40:53.151Z,21.5
2022-08-13T16:47:41.464Z,21.2
2022-08-13T16:54:54.315Z,20.9
2022-08-13T17:01:08.990Z,20.5
2022-08-13T17:09:36.403Z,20.2
2022-08-13T17:15:38.718Z,19.9
2022-08-13T17:23:04.008Z,19.7
2022-08-13T17:30:21.856Z,19.4
2022-08-13T17:37:55.381Z,19.2
2022-08-13T17:46:29.439Z,18.9
2022-08-13T17:53:41.598Z,18.6
2022-08-13T18:00:33.452Z,18.4
2022-08-13T18:08:44.410Z,18.2
2022-08-13T18:19:31.706Z,17.9
2022-08-13T18:25:37.051Z,17.8
2022-08-13T18:34:30.380Z,17.6
2022-08-13T18:40:29.740Z,17.4
2022-08-13T18:47:11.262Z,17.3
2022-08-13T18:55:34.457Z,17.1
2022-08-13T19:01:54.829Z,16.9
2022-08-13T19:08:51.693Z,16.8
2022-08-13T19:15:06.462Z,16.7
2022-08-13T19:22:32.865Z,16.5
2022-08-13T19:30:14.574Z,16.3
2022-08-13T19:36:56.268Z,16.1
2022-08-13T19:44:58.511Z,15.9
2022-08-13T19:52:48.597Z,15.8
2022-08-13T19:59:15.231Z,15.6
2022-08-13T20:06:34.486Z,15.4
2022-08-13T20:13:14.501Z,15.3
2022-08-13T20:20:17.343Z,15.2
2022-08-13T20:28:07.221Z,15
2022-08-13T20:35:22.157Z,14.9
2022-08-13T20:50:10.172Z,14.8
2022-08-13T20:56:11.448Z,14.7
2022-08-13T21:05:07.934Z,14.6
2022-08-13T21:12:27.376Z,14.6
2022-08-13T21:19:59.781Z,14.6
2022-08-13T21:27:25.050Z,14.5
2022-08-13T21:36:25.019Z,14.5
2022-08-13T21:42:55.147Z,14.5
2022-08-13T21:49:15.282Z,14.5
2022-08-13T21:56:06.805Z,14.5
2022-08-13T22:02:18.471Z,14.6
2022-08-13T22:09:47.215Z,14.6
2022-08-13T22:15:52.099Z,14.6
2022-08-13T22:21:56.370Z,14.6
2022-08-13T22:27:44.445Z,14.6
2022-08-13T22:33:23.191Z,14.7
2022-08-13T22:40:51.877Z,14.7
2022-08-13T22:47:22.879Z,14.7
2022-08-13T22:53:38.865Z,14.8
2022-08-13T22:59:33.979Z,14.8
2022-08-13T23:05:37.256Z,14.8
2022-08-13T23:12:01.965Z,14.8
2022-08-13T23:18:21.103Z,14.9
2022-08-13T23:24:13.304Z,14.9
2022-08-13T23:30:16.716Z,14.9
2022-08-13T23:36:52.609Z,14.9
2022-08-13T23:42:45.848Z,15
2022-08-13T23:48:24.029Z,15
2022-08-13T23:54:34.699Z,15
